sensor_id;sensor_type;location;lat;lon;timestamp;P1;durP1;ratioP1;P2;durP2;ratioP2
32734;SDS011;19112;51.076;3.706;2022-10-30T00:00:36;24.30;;;7.68;;
32734;SDS011;19112;51.076;3.706;2022-10-30T00:03:02;22.10;;;8.27;;
32734;SDS011;19112;51.076;3.706;2022-10-30T00:05:28;20.45;;;7.32;;
32734;SDS011;19112;51.076;3.706;2022-10-30T00:07:54;31.38;;;8.13;;
32734;SDS011;19112;51.076;3.706;2022-10-30T00:10:21;28.20;;;9.63;;
32734;SDS011;19112;51.076;3.706;2022-10-30T00:12:47;32.00;;;8.32;;
32734;SDS011;19112;51.076;3.706;2022-10-30T00:15:13;36.53;;;8.90;;
32734;SDS011;19112;51.076;3.706;2022-10-30T00:17:39;27.20;;;8.15;;
32734;SDS011;19112;51.076;3.706;2022-10-30T00:20:05;26.27;;;7.63;;
32734;SDS011;19112;51.076;3.706;2022-10-30T00:22:32;21.73;;;7.68;;
32734;SDS011;19112;51.076;3.706;2022-10-30T00:25:00;25.88;;;8.00;;
32734;SDS011;19112;51.076;3.706;2022-10-30T00:27:26;22.27;;;7.55;;
32734;SDS011;19112;51.076;3.706;2022-10-30T00:29:52;28.23;;;8.77;;
32734;SDS011;19112;51.076;3.706;2022-10-30T00:32:17;28.55;;;8.65;;
32734;SDS011;19112;51.076;3.706;2022-10-30T00:34:43;25.60;;;8.65;;
32734;SDS011;19112;51.076;3.706;2022-10-30T00:37:09;26.63;;;8.10;;
32734;SDS011;19112;51.076;3.706;2022-10-30T00:39:35;21.42;;;7.40;;
32734;SDS011;19112;51.076;3.706;2022-10-30T00:42:01;30.50;;;9.30;;
32734;SDS011;19112;51.076;3.706;2022-10-30T00:55:33;31.63;;;9.00;;
32734;SDS011;19112;51.076;3.706;2022-10-30T00:58:06;31.60;;;9.18;;
32734;SDS011;19112;51.076;3.706;2022-10-30T01:00:36;30.50;;;9.10;;
32734;SDS011;19112;51.076;3.706;2022-10-30T01:03:05;25.83;;;8.40;;
32734;SDS011;19112;51.076;3.706;2022-10-30T01:05:31;26.60;;;9.00;;
32734;SDS011;19112;51.076;3.706;2022-10-30T01:07:59;27.52;;;8.48;;
32734;SDS011;19112;51.076;3.706;2022-10-30T01:10:25;31.95;;;9.52;;
32734;SDS011;19112;51.076;3.706;2022-10-30T01:12:51;29.38;;;7.88;;
32734;SDS011;19112;51.076;3.706;2022-10-30T01:15:22;26.83;;;8.20;;
32734;SDS011;19112;51.076;3.706;2022-10-30T01:21:18;25.02;;;7.97;;
32734;SDS011;19112;51.076;3.706;2022-10-30T01:35:36;29.08;;;8.10;;
32734;SDS011;19112;51.076;3.706;2022-10-30T01:40:44;24.58;;;8.40;;
32734;SDS011;19112;51.076;3.706;2022-10-30T01:43:10;23.33;;;8.43;;
32734;SDS011;19112;51.076;3.706;2022-10-30T01:49:06;28.75;;;8.80;;
32734;SDS011;19112;51.076;3.706;2022-10-30T01:55:27;24.23;;;8.52;;
32734;SDS011;19112;51.076;3.706;2022-10-30T01:58:12;27.02;;;8.63;;
32734;SDS011;19112;51.076;3.706;2022-10-30T02:00:45;25.15;;;7.70;;
32734;SDS011;19112;51.076;3.706;2022-10-30T02:03:17;40.25;;;10.32;;
32734;SDS011;19112;51.076;3.706;2022-10-30T02:05:47;26.35;;;8.40;;
32734;SDS011;19112;51.076;3.706;2022-10-30T02:08:16;25.23;;;8.35;;
32734;SDS011;19112;51.076;3.706;2022-10-30T02:10:42;32.42;;;9.05;;
32734;SDS011;19112;51.076;3.706;2022-10-30T02:13:11;26.88;;;9.10;;
32734;SDS011;19112;51.076;3.706;2022-10-30T02:15:37;28.52;;;9.93;;
32734;SDS011;19112;51.076;3.706;2022-10-30T02:18:03;27.70;;;8.95;;
32734;SDS011;19112;51.076;3.706;2022-10-30T02:20:29;26.52;;;8.63;;
32734;SDS011;19112;51.076;3.706;2022-10-30T02:22:56;29.20;;;8.75;;
32734;SDS011;19112;51.076;3.706;2022-10-30T02:25:22;33.75;;;9.73;;
32734;SDS011;19112;51.076;3.706;2022-10-30T02:27:47;24.38;;;8.27;;
32734;SDS011;19112;51.076;3.706;2022-10-30T02:30:13;24.73;;;9.48;;
32734;SDS011;19112;51.076;3.706;2022-10-30T02:32:39;25.75;;;8.65;;
32734;SDS011;19112;51.076;3.706;2022-10-30T02:35:05;24.52;;;8.95;;
32734;SDS011;19112;51.076;3.706;2022-10-30T02:37:32;27.33;;;8.88;;
32734;SDS011;19112;51.076;3.706;2022-10-30T02:39:59;28.80;;;9.88;;
32734;SDS011;19112;51.076;3.706;2022-10-30T02:42:28;31.75;;;9.55;;
32734;SDS011;19112;51.076;3.706;2022-10-30T02:44:54;27.25;;;9.15;;
32734;SDS011;19112;51.076;3.706;2022-10-30T02:47:19;27.60;;;8.80;;
32734;SDS011;19112;51.076;3.706;2022-10-30T02:49:45;34.00;;;9.48;;
32734;SDS011;19112;51.076;3.706;2022-10-30T02:52:11;25.25;;;8.82;;
32734;SDS011;19112;51.076;3.706;2022-10-30T02:54:37;26.20;;;8.23;;
32734;SDS011;19112;51.076;3.706;2022-10-30T02:57:02;28.23;;;8.80;;
32734;SDS011;19112;51.076;3.706;2022-10-30T02:59:28;27.42;;;9.18;;
32734;SDS011;19112;51.076;3.706;2022-10-30T03:01:54;21.73;;;8.23;;
32734;SDS011;19112;51.076;3.706;2022-10-30T03:04:20;27.67;;;8.68;;
32734;SDS011;19112;51.076;3.706;2022-10-30T03:06:46;26.05;;;8.38;;
32734;SDS011;19112;51.076;3.706;2022-10-30T03:09:11;24.45;;;8.45;;
32734;SDS011;19112;51.076;3.706;2022-10-30T03:11:37;29.65;;;8.70;;
32734;SDS011;19112;51.076;3.706;2022-10-30T03:14:03;23.92;;;9.25;;
32734;SDS011;19112;51.076;3.706;2022-10-30T03:16:29;24.95;;;8.48;;
32734;SDS011;19112;51.076;3.706;2022-10-30T03:18:56;26.77;;;10.00;;
32734;SDS011;19112;51.076;3.706;2022-10-30T03:21:24;27.10;;;9.57;;
32734;SDS011;19112;51.076;3.706;2022-10-30T03:23:52;29.50;;;9.43;;
32734;SDS011;19112;51.076;3.706;2022-10-30T03:26:18;24.65;;;8.75;;
32734;SDS011;19112;51.076;3.706;2022-10-30T03:28:44;22.02;;;9.20;;
32734;SDS011;19112;51.076;3.706;2022-10-30T03:31:12;23.45;;;9.65;;
32734;SDS011;19112;51.076;3.706;2022-10-30T03:33:42;25.73;;;9.50;;
32734;SDS011;19112;51.076;3.706;2022-10-30T03:36:09;25.25;;;8.98;;
32734;SDS011;19112;51.076;3.706;2022-10-30T03:38:37;27.08;;;9.25;;
32734;SDS011;19112;51.076;3.706;2022-10-30T03:41:03;27.23;;;9.73;;
32734;SDS011;19112;51.076;3.706;2022-10-30T03:43:29;28.77;;;9.52;;
32734;SDS011;19112;51.076;3.706;2022-10-30T03:45:55;28.77;;;10.60;;
32734;SDS011;19112;51.076;3.706;2022-10-30T03:48:22;27.92;;;9.43;;
32734;SDS011;19112;51.076;3.706;2022-10-30T03:50:54;29.15;;;11.07;;
32734;SDS011;19112;51.076;3.706;2022-10-30T03:53:21;28.17;;;9.93;;
32734;SDS011;19112;51.076;3.706;2022-10-30T03:55:48;31.35;;;10.52;;
32734;SDS011;19112;51.076;3.706;2022-10-30T03:58:14;28.67;;;9.88;;
32734;SDS011;19112;51.076;3.706;2022-10-30T04:00:40;27.98;;;9.05;;
32734;SDS011;19112;51.076;3.706;2022-10-30T04:03:06;24.85;;;9.10;;
32734;SDS011;19112;51.076;3.706;2022-10-30T04:05:34;34.35;;;9.93;;
32734;SDS011;19112;51.076;3.706;2022-10-30T04:08:01;29.38;;;9.73;;
32734;SDS011;19112;51.076;3.706;2022-10-30T04:10:31;31.38;;;10.15;;
32734;SDS011;19112;51.076;3.706;2022-10-30T04:12:59;24.63;;;10.10;;
32734;SDS011;19112;51.076;3.706;2022-10-30T04:15:26;25.17;;;9.55;;
32734;SDS011;19112;51.076;3.706;2022-10-30T04:17:52;26.95;;;9.73;;
32734;SDS011;19112;51.076;3.706;2022-10-30T04:20:18;23.73;;;9.32;;
32734;SDS011;19112;51.076;3.706;2022-10-30T04:22:46;26.73;;;9.95;;
32734;SDS011;19112;51.076;3.706;2022-10-30T04:25:11;25.13;;;9.60;;
32734;SDS011;19112;51.076;3.706;2022-10-30T04:27:38;26.10;;;9.65;;
32734;SDS011;19112;51.076;3.706;2022-10-30T04:30:09;28.63;;;9.57;;
32734;SDS011;19112;51.076;3.706;2022-10-30T04:32:44;27.15;;;9.40;;
32734;SDS011;19112;51.076;3.706;2022-10-30T04:35:11;26.13;;;9.57;;
32734;SDS011;19112;51.076;3.706;2022-10-30T04:37:38;26.13;;;10.57;;
32734;SDS011;19112;51.076;3.706;2022-10-30T04:40:03;32.85;;;10.38;;
32734;SDS011;19112;51.076;3.706;2022-10-30T04:42:30;27.25;;;10.02;;
32734;SDS011;19112;51.076;3.706;2022-10-30T04:44:56;25.48;;;9.07;;
32734;SDS011;19112;51.076;3.706;2022-10-30T04:47:22;27.58;;;10.30;;
32734;SDS011;19112;51.076;3.706;2022-10-30T04:49:48;29.67;;;10.25;;
32734;SDS011;19112;51.076;3.706;2022-10-30T04:52:13;31.60;;;9.70;;
32734;SDS011;19112;51.076;3.706;2022-10-30T04:54:39;32.97;;;10.75;;
32734;SDS011;19112;51.076;3.706;2022-10-30T04:57:05;28.40;;;9.93;;
32734;SDS011;19112;51.076;3.706;2022-10-30T04:59:31;26.83;;;9.05;;
32734;SDS011;19112;51.076;3.706;2022-10-30T05:01:57;25.38;;;8.88;;
32734;SDS011;19112;51.076;3.706;2022-10-30T05:04:23;22.85;;;9.50;;
32734;SDS011;19112;51.076;3.706;2022-10-30T05:06:48;25.77;;;8.70;;
32734;SDS011;19112;51.076;3.706;2022-10-30T05:09:14;25.15;;;9.95;;
32734;SDS011;19112;51.076;3.706;2022-10-30T05:11:40;25.55;;;8.70;;
32734;SDS011;19112;51.076;3.706;2022-10-30T05:14:05;26.73;;;8.95;;
32734;SDS011;19112;51.076;3.706;2022-10-30T05:16:31;25.23;;;9.38;;
32734;SDS011;19112;51.076;3.706;2022-10-30T05:18:57;30.55;;;9.90;;
32734;SDS011;19112;51.076;3.706;2022-10-30T05:21:23;30.73;;;10.05;;
32734;SDS011;19112;51.076;3.706;2022-10-30T05:23:49;23.88;;;8.98;;
32734;SDS011;19112;51.076;3.706;2022-10-30T05:26:15;25.58;;;9.02;;
32734;SDS011;19112;51.076;3.706;2022-10-30T05:28:40;25.25;;;9.35;;
32734;SDS011;19112;51.076;3.706;2022-10-30T05:31:06;24.98;;;9.25;;
32734;SDS011;19112;51.076;3.706;2022-10-30T05:33:32;23.42;;;8.15;;
32734;SDS011;19112;51.076;3.706;2022-10-30T05:35:58;27.85;;;9.60;;
32734;SDS011;19112;51.076;3.706;2022-10-30T05:38:23;28.08;;;9.73;;
32734;SDS011;19112;51.076;3.706;2022-10-30T05:40:49;24.15;;;9.35;;
32734;SDS011;19112;51.076;3.706;2022-10-30T05:43:15;26.08;;;9.15;;
32734;SDS011;19112;51.076;3.706;2022-10-30T05:45:40;23.92;;;8.50;;
32734;SDS011;19112;51.076;3.706;2022-10-30T05:48:06;27.83;;;9.50;;
32734;SDS011;19112;51.076;3.706;2022-10-30T05:50:32;27.27;;;9.23;;
32734;SDS011;19112;51.076;3.706;2022-10-30T05:52:59;29.67;;;8.45;;
32734;SDS011;19112;51.076;3.706;2022-10-30T05:55:28;27.88;;;9.40;;
32734;SDS011;19112;51.076;3.706;2022-10-30T05:57:55;21.35;;;8.70;;
32734;SDS011;19112;51.076;3.706;2022-10-30T06:00:26;28.33;;;8.95;;
32734;SDS011;19112;51.076;3.706;2022-10-30T06:03:06;26.35;;;8.73;;
32734;SDS011;19112;51.076;3.706;2022-10-30T06:05:36;24.27;;;8.85;;
32734;SDS011;19112;51.076;3.706;2022-10-30T06:08:03;25.20;;;9.02;;
32734;SDS011;19112;51.076;3.706;2022-10-30T06:10:31;23.15;;;9.35;;
32734;SDS011;19112;51.076;3.706;2022-10-30T06:12:59;23.77;;;8.40;;
32734;SDS011;19112;51.076;3.706;2022-10-30T06:15:28;27.05;;;9.30;;
32734;SDS011;19112;51.076;3.706;2022-10-30T06:17:54;27.20;;;8.20;;
32734;SDS011;19112;51.076;3.706;2022-10-30T06:20:21;23.50;;;8.60;;
32734;SDS011;19112;51.076;3.706;2022-10-30T06:22:53;26.65;;;9.20;;
32734;SDS011;19112;51.076;3.706;2022-10-30T06:25:28;27.70;;;9.43;;
32734;SDS011;19112;51.076;3.706;2022-10-30T06:27:56;25.08;;;8.80;;
32734;SDS011;19112;51.076;3.706;2022-10-30T06:30:22;25.30;;;9.13;;
32734;SDS011;19112;51.076;3.706;2022-10-30T06:32:49;25.15;;;10.15;;
32734;SDS011;19112;51.076;3.706;2022-10-30T06:35:19;25.40;;;9.88;;
32734;SDS011;19112;51.076;3.706;2022-10-30T06:37:48;25.38;;;9.00;;
32734;SDS011;19112;51.076;3.706;2022-10-30T06:40:15;25.88;;;8.80;;
32734;SDS011;19112;51.076;3.706;2022-10-30T06:42:42;23.63;;;8.77;;
32734;SDS011;19112;51.076;3.706;2022-10-30T06:45:12;23.08;;;8.68;;
32734;SDS011;19112;51.076;3.706;2022-10-30T06:47:40;27.83;;;8.80;;
32734;SDS011;19112;51.076;3.706;2022-10-30T06:50:07;27.33;;;10.40;;
32734;SDS011;19112;51.076;3.706;2022-10-30T06:52:35;28.38;;;10.60;;
32734;SDS011;19112;51.076;3.706;2022-10-30T06:55:01;23.40;;;9.68;;
32734;SDS011;19112;51.076;3.706;2022-10-30T06:57:28;29.02;;;9.82;;
32734;SDS011;19112;51.076;3.706;2022-10-30T06:59:54;24.27;;;9.82;;
32734;SDS011;19112;51.076;3.706;2022-10-30T07:02:20;26.10;;;10.52;;
32734;SDS011;19112;51.076;3.706;2022-10-30T07:04:46;28.30;;;9.40;;
32734;SDS011;19112;51.076;3.706;2022-10-30T07:07:12;27.23;;;9.50;;
32734;SDS011;19112;51.076;3.706;2022-10-30T07:09:38;29.63;;;10.00;;
32734;SDS011;19112;51.076;3.706;2022-10-30T07:12:05;24.83;;;9.45;;
32734;SDS011;19112;51.076;3.706;2022-10-30T07:14:32;26.08;;;9.25;;
32734;SDS011;19112;51.076;3.706;2022-10-30T07:16:58;26.90;;;9.90;;
32734;SDS011;19112;51.076;3.706;2022-10-30T07:19:23;24.63;;;9.18;;
32734;SDS011;19112;51.076;3.706;2022-10-30T07:21:49;28.70;;;8.77;;
32734;SDS011;19112;51.076;3.706;2022-10-30T07:24:15;23.85;;;8.82;;
32734;SDS011;19112;51.076;3.706;2022-10-30T07:26:41;28.13;;;9.95;;
32734;SDS011;19112;51.076;3.706;2022-10-30T07:29:07;30.77;;;9.90;;
32734;SDS011;19112;51.076;3.706;2022-10-30T07:31:33;30.70;;;10.25;;
32734;SDS011;19112;51.076;3.706;2022-10-30T07:33:59;25.73;;;9.30;;
32734;SDS011;19112;51.076;3.706;2022-10-30T07:36:24;24.65;;;9.10;;
32734;SDS011;19112;51.076;3.706;2022-10-30T07:38:50;27.63;;;10.25;;
32734;SDS011;19112;51.076;3.706;2022-10-30T07:41:17;34.55;;;11.35;;
32734;SDS011;19112;51.076;3.706;2022-10-30T07:43:44;31.98;;;14.25;;
32734;SDS011;19112;51.076;3.706;2022-10-30T07:46:10;27.60;;;11.65;;
32734;SDS011;19112;51.076;3.706;2022-10-30T07:48:36;24.25;;;10.48;;
32734;SDS011;19112;51.076;3.706;2022-10-30T07:51:02;26.38;;;9.20;;
32734;SDS011;19112;51.076;3.706;2022-10-30T07:53:29;23.23;;;9.43;;
32734;SDS011;19112;51.076;3.706;2022-10-30T07:55:55;24.70;;;9.20;;
32734;SDS011;19112;51.076;3.706;2022-10-30T07:58:21;25.67;;;9.05;;
32734;SDS011;19112;51.076;3.706;2022-10-30T08:00:47;22.85;;;8.70;;
32734;SDS011;19112;51.076;3.706;2022-10-30T08:03:13;26.58;;;9.48;;
32734;SDS011;19112;51.076;3.706;2022-10-30T08:05:39;26.30;;;8.63;;
32734;SDS011;19112;51.076;3.706;2022-10-30T08:08:05;22.52;;;8.32;;
32734;SDS011;19112;51.076;3.706;2022-10-30T08:10:32;23.92;;;8.73;;
32734;SDS011;19112;51.076;3.706;2022-10-30T08:12:58;20.70;;;8.38;;
32734;SDS011;19112;51.076;3.706;2022-10-30T08:15:24;25.88;;;8.85;;
32734;SDS011;19112;51.076;3.706;2022-10-30T08:17:50;27.67;;;10.23;;
32734;SDS011;19112;51.076;3.706;2022-10-30T08:20:17;23.15;;;9.27;;
32734;SDS011;19112;51.076;3.706;2022-10-30T08:22:49;23.88;;;8.65;;
32734;SDS011;19112;51.076;3.706;2022-10-30T08:25:18;28.70;;;10.13;;
32734;SDS011;19112;51.076;3.706;2022-10-30T08:27:56;30.65;;;9.52;;
32734;SDS011;19112;51.076;3.706;2022-10-30T08:30:28;25.83;;;10.13;;
32734;SDS011;19112;51.076;3.706;2022-10-30T08:32:58;28.13;;;10.00;;
32734;SDS011;19112;51.076;3.706;2022-10-30T08:35:26;29.08;;;10.20;;
32734;SDS011;19112;51.076;3.706;2022-10-30T08:37:56;28.45;;;10.30;;
32734;SDS011;19112;51.076;3.706;2022-10-30T08:40:26;28.30;;;9.65;;
32734;SDS011;19112;51.076;3.706;2022-10-30T08:42:52;31.30;;;10.23;;
32734;SDS011;19112;51.076;3.706;2022-10-30T08:45:20;27.08;;;9.27;;
32734;SDS011;19112;51.076;3.706;2022-10-30T08:47:47;23.42;;;9.10;;
32734;SDS011;19112;51.076;3.706;2022-10-30T08:52:45;30.15;;;10.10;;
32734;SDS011;19112;51.076;3.706;2022-10-30T08:55:11;34.30;;;11.82;;
32734;SDS011;19112;51.076;3.706;2022-10-30T08:57:37;33.15;;;9.32;;
32734;SDS011;19112;51.076;3.706;2022-10-30T09:00:03;27.42;;;9.38;;
32734;SDS011;19112;51.076;3.706;2022-10-30T09:02:30;35.63;;;9.20;;
32734;SDS011;19112;51.076;3.706;2022-10-30T09:04:56;27.67;;;10.13;;
32734;SDS011;19112;51.076;3.706;2022-10-30T09:07:22;28.27;;;8.48;;
32734;SDS011;19112;51.076;3.706;2022-10-30T09:09:48;25.77;;;8.82;;
32734;SDS011;19112;51.076;3.706;2022-10-30T09:12:14;24.38;;;9.05;;
32734;SDS011;19112;51.076;3.706;2022-10-30T09:14:40;26.63;;;10.50;;
32734;SDS011;19112;51.076;3.706;2022-10-30T09:17:06;25.42;;;8.82;;
32734;SDS011;19112;51.076;3.706;2022-10-30T09:19:32;28.92;;;9.85;;
32734;SDS011;19112;51.076;3.706;2022-10-30T09:21:58;26.65;;;8.95;;
32734;SDS011;19112;51.076;3.706;2022-10-30T09:24:25;25.98;;;8.27;;
32734;SDS011;19112;51.076;3.706;2022-10-30T09:26:51;26.55;;;9.35;;
32734;SDS011;19112;51.076;3.706;2022-10-30T09:29:18;27.02;;;8.43;;
32734;SDS011;19112;51.076;3.706;2022-10-30T09:31:44;25.80;;;8.25;;
32734;SDS011;19112;51.076;3.706;2022-10-30T09:34:10;25.65;;;8.95;;
32734;SDS011;19112;51.076;3.706;2022-10-30T09:36:36;27.42;;;9.18;;
32734;SDS011;19112;51.076;3.706;2022-10-30T09:39:02;31.05;;;9.68;;
32734;SDS011;19112;51.076;3.706;2022-10-30T09:47:19;26.73;;;9.32;;
32734;SDS011;19112;51.076;3.706;2022-10-30T09:53:01;29.40;;;9.80;;
32734;SDS011;19112;51.076;3.706;2022-10-30T09:58:55;29.42;;;8.77;;
32734;SDS011;19112;51.076;3.706;2022-10-30T10:01:48;27.27;;;8.90;;
32734;SDS011;19112;51.076;3.706;2022-10-30T10:07:51;25.88;;;9.07;;
32734;SDS011;19112;51.076;3.706;2022-10-30T10:10:24;27.77;;;8.77;;
32734;SDS011;19112;51.076;3.706;2022-10-30T10:13:43;26.33;;;8.50;;
32734;SDS011;19112;51.076;3.706;2022-10-30T10:18:50;25.52;;;9.05;;
32734;SDS011;19112;51.076;3.706;2022-10-30T10:21:49;23.45;;;8.25;;
32734;SDS011;19112;51.076;3.706;2022-10-30T10:24:44;27.00;;;8.93;;
32734;SDS011;19112;51.076;3.706;2022-10-30T10:30:24;24.35;;;8.45;;
32734;SDS011;19112;51.076;3.706;2022-10-30T10:36:03;20.73;;;7.68;;
32734;SDS011;19112;51.076;3.706;2022-10-30T10:39:05;25.00;;;9.13;;
32734;SDS011;19112;51.076;3.706;2022-10-30T10:42:45;25.60;;;7.60;;
32734;SDS011;19112;51.076;3.706;2022-10-30T10:45:41;27.13;;;9.32;;
32734;SDS011;19112;51.076;3.706;2022-10-30T10:51:42;21.17;;;6.30;;
32734;SDS011;19112;51.076;3.706;2022-10-30T10:54:16;27.00;;;8.45;;
32734;SDS011;19112;51.076;3.706;2022-10-30T10:56:57;21.30;;;7.13;;
32734;SDS011;19112;51.076;3.706;2022-10-30T10:59:40;31.00;;;7.53;;
32734;SDS011;19112;51.076;3.706;2022-10-30T11:02:27;24.70;;;6.75;;
32734;SDS011;19112;51.076;3.706;2022-10-30T11:05:11;23.00;;;7.18;;
32734;SDS011;19112;51.076;3.706;2022-10-30T11:08:24;23.52;;;8.15;;
32734;SDS011;19112;51.076;3.706;2022-10-30T11:10:55;27.35;;;8.00;;
32734;SDS011;19112;51.076;3.706;2022-10-30T11:13:30;26.10;;;7.90;;
32734;SDS011;19112;51.076;3.706;2022-10-30T11:18:43;28.77;;;8.20;;
32734;SDS011;19112;51.076;3.706;2022-10-30T11:21:18;24.10;;;7.43;;
32734;SDS011;19112;51.076;3.706;2022-10-30T11:23:48;24.95;;;7.38;;
32734;SDS011;19112;51.076;3.706;2022-10-30T11:31:38;25.15;;;8.40;;
32734;SDS011;19112;51.076;3.706;2022-10-30T11:36:55;26.30;;;7.88;;
32734;SDS011;19112;51.076;3.706;2022-10-30T11:39:22;21.30;;;7.25;;
32734;SDS011;19112;51.076;3.706;2022-10-30T11:44:34;26.60;;;7.82;;
32734;SDS011;19112;51.076;3.706;2022-10-30T11:47:09;27.48;;;8.02;;
32734;SDS011;19112;51.076;3.706;2022-10-30T11:49:51;24.67;;;7.72;;
32734;SDS011;19112;51.076;3.706;2022-10-30T11:52:23;27.73;;;8.20;;
32734;SDS011;19112;51.076;3.706;2022-10-30T11:55:01;33.78;;;9.32;;
32734;SDS011;19112;51.076;3.706;2022-10-30T11:57:53;21.98;;;7.32;;
32734;SDS011;19112;51.076;3.706;2022-10-30T12:00:22;25.00;;;7.68;;
32734;SDS011;19112;51.076;3.706;2022-10-30T12:02:55;23.00;;;7.35;;
32734;SDS011;19112;51.076;3.706;2022-10-30T12:05:32;26.50;;;8.13;;
32734;SDS011;19112;51.076;3.706;2022-10-30T12:10:31;20.52;;;7.45;;
32734;SDS011;19112;51.076;3.706;2022-10-30T12:13:22;20.80;;;7.45;;
32734;SDS011;19112;51.076;3.706;2022-10-30T12:16:04;20.52;;;7.38;;
32734;SDS011;19112;51.076;3.706;2022-10-30T12:18:49;26.42;;;7.60;;
32734;SDS011;19112;51.076;3.706;2022-10-30T12:21:23;23.52;;;7.90;;
32734;SDS011;19112;51.076;3.706;2022-10-30T12:23:55;23.60;;;8.30;;
32734;SDS011;19112;51.076;3.706;2022-10-30T12:26:30;20.98;;;7.85;;
32734;SDS011;19112;51.076;3.706;2022-10-30T12:28:58;22.83;;;7.82;;
32734;SDS011;19112;51.076;3.706;2022-10-30T12:31:33;25.92;;;7.65;;
32734;SDS011;19112;51.076;3.706;2022-10-30T12:34:25;22.50;;;6.72;;
32734;SDS011;19112;51.076;3.706;2022-10-30T12:37:35;19.02;;;6.70;;
32734;SDS011;19112;51.076;3.706;2022-10-30T12:42:45;21.35;;;6.70;;
32734;SDS011;19112;51.076;3.706;2022-10-30T12:45:25;23.83;;;7.00;;
32734;SDS011;19112;51.076;3.706;2022-10-30T12:48:08;21.70;;;7.35;;
32734;SDS011;19112;51.076;3.706;2022-10-30T12:51:08;21.42;;;6.82;;
32734;SDS011;19112;51.076;3.706;2022-10-30T12:54:07;22.55;;;6.57;;
32734;SDS011;19112;51.076;3.706;2022-10-30T12:57:02;24.13;;;8.48;;
32734;SDS011;19112;51.076;3.706;2022-10-30T12:59:45;21.40;;;7.13;;
32734;SDS011;19112;51.076;3.706;2022-10-30T13:11:20;23.40;;;8.45;;
32734;SDS011;19112;51.076;3.706;2022-10-30T13:14:03;23.85;;;9.57;;
32734;SDS011;19112;51.076;3.706;2022-10-30T13:16:40;21.00;;;7.90;;
32734;SDS011;19112;51.076;3.706;2022-10-30T13:19:07;22.40;;;9.35;;
32734;SDS011;19112;51.076;3.706;2022-10-30T13:21:48;25.25;;;9.70;;
32734;SDS011;19112;51.076;3.706;2022-10-30T13:27:13;23.65;;;8.73;;
32734;SDS011;19112;51.076;3.706;2022-10-30T13:40:51;15.25;;;4.57;;
32734;SDS011;19112;51.076;3.706;2022-10-30T13:43:30;17.20;;;5.65;;
32734;SDS011;19112;51.076;3.706;2022-10-30T13:52:20;15.70;;;4.60;;
32734;SDS011;19112;51.076;3.706;2022-10-30T13:55:01;13.32;;;4.60;;
32734;SDS011;19112;51.076;3.706;2022-10-30T14:00:25;18.30;;;5.38;;
32734;SDS011;19112;51.076;3.706;2022-10-30T14:03:32;21.65;;;4.55;;
32734;SDS011;19112;51.076;3.706;2022-10-30T14:10:30;15.30;;;5.18;;
32734;SDS011;19112;51.076;3.706;2022-10-30T14:19:14;19.67;;;6.32;;
32734;SDS011;19112;51.076;3.706;2022-10-30T14:24:26;22.52;;;7.40;;
32734;SDS011;19112;51.076;3.706;2022-10-30T14:27:39;25.35;;;6.95;;
32734;SDS011;19112;51.076;3.706;2022-10-30T14:29:54;20.67;;;5.75;;
32734;SDS011;19112;51.076;3.706;2022-10-30T14:37:15;23.73;;;7.95;;
32734;SDS011;19112;51.076;3.706;2022-10-30T14:43:28;17.35;;;6.03;;
32734;SDS011;19112;51.076;3.706;2022-10-30T14:46:22;17.38;;;5.13;;
32734;SDS011;19112;51.076;3.706;2022-10-30T14:51:53;18.05;;;5.22;;
32734;SDS011;19112;51.076;3.706;2022-10-30T14:54:40;15.50;;;3.67;;
32734;SDS011;19112;51.076;3.706;2022-10-30T15:00:28;17.98;;;5.15;;
32734;SDS011;19112;51.076;3.706;2022-10-30T15:03:02;20.40;;;5.68;;
32734;SDS011;19112;51.076;3.706;2022-10-30T15:11:24;23.85;;;12.55;;
32734;SDS011;19112;51.076;3.706;2022-10-30T15:14:09;14.35;;;4.68;;
32734;SDS011;19112;51.076;3.706;2022-10-30T15:16:49;25.60;;;11.55;;
32734;SDS011;19112;51.076;3.706;2022-10-30T15:19:18;18.90;;;6.88;;
32734;SDS011;19112;51.076;3.706;2022-10-30T15:21:53;15.68;;;5.28;;
32734;SDS011;19112;51.076;3.706;2022-10-30T15:24:21;15.85;;;4.05;;
32734;SDS011;19112;51.076;3.706;2022-10-30T15:26:52;11.90;;;3.65;;
32734;SDS011;19112;51.076;3.706;2022-10-30T15:29:26;14.02;;;3.83;;
32734;SDS011;19112;51.076;3.706;2022-10-30T15:32:15;20.25;;;5.10;;
32734;SDS011;19112;51.076;3.706;2022-10-30T15:34:56;17.88;;;5.72;;
32734;SDS011;19112;51.076;3.706;2022-10-30T15:37:25;19.02;;;6.80;;
32734;SDS011;19112;51.076;3.706;2022-10-30T15:40:13;18.00;;;7.18;;
32734;SDS011;19112;51.076;3.706;2022-10-30T15:45:16;14.23;;;5.05;;
32734;SDS011;19112;51.076;3.706;2022-10-30T15:47:52;14.20;;;5.05;;
32734;SDS011;19112;51.076;3.706;2022-10-30T15:50:24;17.48;;;6.65;;
32734;SDS011;19112;51.076;3.706;2022-10-30T15:52:50;18.42;;;5.60;;
32734;SDS011;19112;51.076;3.706;2022-10-30T15:55:18;18.40;;;5.82;;
32734;SDS011;19112;51.076;3.706;2022-10-30T15:57:54;16.73;;;5.40;;
32734;SDS011;19112;51.076;3.706;2022-10-30T16:00:29;15.98;;;6.13;;
32734;SDS011;19112;51.076;3.706;2022-10-30T16:03:04;20.85;;;6.95;;
32734;SDS011;19112;51.076;3.706;2022-10-30T16:05:40;19.42;;;5.15;;
32734;SDS011;19112;51.076;3.706;2022-10-30T16:08:24;15.88;;;4.72;;
32734;SDS011;19112;51.076;3.706;2022-10-30T16:10:53;21.80;;;9.20;;
32734;SDS011;19112;51.076;3.706;2022-10-30T16:13:22;24.80;;;10.10;;
32734;SDS011;19112;51.076;3.706;2022-10-30T16:15:54;44.05;;;23.48;;
32734;SDS011;19112;51.076;3.706;2022-10-30T16:18:20;23.88;;;9.10;;
32734;SDS011;19112;51.076;3.706;2022-10-30T16:23:21;19.50;;;6.82;;
32734;SDS011;19112;51.076;3.706;2022-10-30T16:25:52;18.20;;;5.72;;
32734;SDS011;19112;51.076;3.706;2022-10-30T16:30:49;21.85;;;6.60;;
32734;SDS011;19112;51.076;3.706;2022-10-30T16:33:16;17.75;;;5.88;;
32734;SDS011;19112;51.076;3.706;2022-10-30T16:35:50;16.60;;;5.47;;
32734;SDS011;19112;51.076;3.706;2022-10-30T16:38:17;21.40;;;5.22;;
32734;SDS011;19112;51.076;3.706;2022-10-30T16:40:45;17.42;;;4.43;;
32734;SDS011;19112;51.076;3.706;2022-10-30T16:43:24;23.95;;;9.65;;
32734;SDS011;19112;51.076;3.706;2022-10-30T16:46:03;19.55;;;5.05;;
32734;SDS011;19112;51.076;3.706;2022-10-30T16:48:40;19.33;;;4.78;;
32734;SDS011;19112;51.076;3.706;2022-10-30T16:51:17;16.15;;;4.85;;
32734;SDS011;19112;51.076;3.706;2022-10-30T16:53:45;14.50;;;4.30;;
32734;SDS011;19112;51.076;3.706;2022-10-30T16:56:28;17.58;;;3.90;;
32734;SDS011;19112;51.076;3.706;2022-10-30T16:58:57;19.52;;;6.15;;
32734;SDS011;19112;51.076;3.706;2022-10-30T17:01:36;16.48;;;4.85;;
32734;SDS011;19112;51.076;3.706;2022-10-30T17:04:02;13.18;;;5.47;;
32734;SDS011;19112;51.076;3.706;2022-10-30T17:06:37;13.57;;;4.35;;
32734;SDS011;19112;51.076;3.706;2022-10-30T17:09:07;13.80;;;4.60;;
32734;SDS011;19112;51.076;3.706;2022-10-30T17:11:45;19.63;;;7.90;;
32734;SDS011;19112;51.076;3.706;2022-10-30T17:14:25;21.58;;;6.78;;
32734;SDS011;19112;51.076;3.706;2022-10-30T17:16:57;16.75;;;5.43;;
32734;SDS011;19112;51.076;3.706;2022-10-30T17:21:56;18.52;;;4.55;;
32734;SDS011;19112;51.076;3.706;2022-10-30T17:24:32;12.77;;;4.38;;
32734;SDS011;19112;51.076;3.706;2022-10-30T17:27:00;14.77;;;5.22;;
32734;SDS011;19112;51.076;3.706;2022-10-30T17:32:03;19.57;;;6.70;;
32734;SDS011;19112;51.076;3.706;2022-10-30T17:34:35;21.75;;;7.35;;
32734;SDS011;19112;51.076;3.706;2022-10-30T17:37:01;21.95;;;8.75;;
32734;SDS011;19112;51.076;3.706;2022-10-30T17:39:27;24.08;;;10.98;;